Latest Observation

42 Stations

15 Minute Data | America/Los_Angeles
as of 9/1/26 1:47 AM PDT
Station Date Time Temp (°F) RH (%) Dew Pt (°F) Wind Spd (mph) Wind Dir (°) Wind Gust (mph) Latest Rain (In) Daily Rain (In) Daily Min Temp (°F) Daily Max Temp (°F) Daily Max Wind (mph)
Elk Mt. Farm 8/13/26 1500 85.6   7.4 - - - - - - - 51.4   1.1 85.6   7.4 -
Upper Lake 9/1/26 0145 56.9   5.0 81   6 51.1   6.9 4.7 NNW | 336 11.2   10.3 0.00 0.00 55.8   4.0 57.0   4.4 11.8   10.7
Scotts Valley 9/1/26 0145 51.6   4.1 85   4 47.2   5.2 0.1 NNE | 14 1.0   0.1 0.00 0.00 50.7   3.3 52.4   3.6 4.6   3.7
Scotts Valley-South (Bella Vista) 9/1/26 0145 52.5   0.5 84   22 47.8   8.2 0.2 N | 349 1.6   1.6 0.00 0.00 51.9   0.0 53.6   0.5 5.5   5.5
Kelseyville 9/1/26 0145 48.5   4.5 89   10 45.5   1.1 0.6 SSW | 195 2.8   0.9 0.00 0.00 47.7   4.5 51.7   2.4 5.0   3.1
Kelseyville Remote 9/1/26 0145 49.7   4.2 79   5 43.6   2.4 - - - 0.00 0.00 49.7   4.2 52.1   5.5 -
Kelseyville (Clark Drive) 9/1/26 0145 47.1   2.7 - - - - - 0.00 0.00 46.6   3.0 48.6   3.5 -
Kelsey Bench (Oaklea) 9/1/26 0145 50.2   8.1 89   28 47.0   2.1 2.5 SE | 142 3.6   0.6 0.00 0.00 50.0   8.0 51.1   9.1 3.6   0.5
Smith Lane (Kelseyville-South) 9/1/26 0130 45.2   6.2 90   12 42.5   2.4 0.0 N | 0 0.0   0.0 0.00 0.00 45.2   6.2 47.0   6.8 0.0   2.6
Bell Hill-West 9/1/26 0145 52.3   1.9 93   13 50.3   2.3 0.5 ENE | 57 2.7   0.7 0.00 0.00 51.2   2.8 53.9   0.9 3.8   0.3
High Valley Ridgeline (Brassfield) 9/1/26 0145 52.5   16.0 88   49 49.0   6.4 11.7 WSW | 257 19.8   14.8 0.00 0.00 52.5   15.6 52.9   15.9 23.8   17.7
Wight Way (Adobe Creek) 9/1/26 0100 49.9   1.0 86   10 46.0   2.1 1.1 SE | 136 2.7   1.0 0.00 0.00 44.3   0.9 88.2   9.6 17.3   4.3
Ridgeline Top (Brassfield) 9/1/26 0130 52.6   14.0 - - - - - - - 52.4   13.9 52.8   14.6 -
Ridgeline Low (Brassfield) 9/1/26 0145 54.2   8.5 - - - - - - - 54.2   7.8 54.6   9.8 -
Long Valley (Shannon) 6/29/26 1400 84.9   4.6 25   1 44.9   3.2 2.9 ENE | 75 10.2   0.4 0.00 0.00 46.4   0.4 86.9   6.5 13.7   1.8
High Valley Winery 9/1/26 0145 54.4   2.2 82   17 49.0   8.1 8.1 W | 273 15.6   14.1 0.00 0.00 54.3   2.6 54.8   0.3 18.8   16.9
Round Mtn Rd. 9/1/26 0145 53.7   3.6 - - - - - - - 53.3   3.9 53.9   5.1 -
Circle O 9/1/26 0145 52.0   0.8 - - - - - - - 51.6   0.9 53.4   1.0 -
Robertsbridge Vineyards 9/1/26 0145 49.3   3.2 88   18 46.0   2.8 - - - - - 48.6   3.3 51.0   2.9 -
Urgency Vineyard 9/1/26 0145 51.6   0.5 84   11 46.9   3.2 4.3 SW | 224 8.7   7.2 0.00 0.00 51.6   0.5 51.9   2.1 9.9   6.7
Red Hills (Beckstoffer) 9/1/26 0145 52.3   4.5 87   18 48.6   10.5 - - - 0.00 0.00 52.2   4.4 52.7   2.1 -
Winters (Shannon) 9/1/26 0145 51.8   6.3 81   1 46.1   6.6 4.9 W | 270 10.2   9.3 0.00 0.00 51.8   6.3 52.5   4.9 12.8   11.6
Secret Pond (Shannon) 9/1/26 0145 50.8   1.1 82   14 45.3   6.0 4.0 NW | 310 7.7   7.7 0.00 0.00 50.5   0.9 51.9   1.1 11.8   11.8
Rolling Knolls (Shannon) 9/1/26 0145 54.6   3.5 75   4 46.8   4.8 3.0 W | 279 11.8   9.1 0.00 0.00 54.5   3.9 55.5   2.6 11.8   9.1
Lower Lake 9/1/26 0145 54.5   4.4 78   21 47.9   4.3 6.0 WNW | 292 16.3   11.5 0.00 0.00 54.4   2.9 55.1   3.8 16.3   11.0
Adamson Ranch 9/1/26 0145 48.5   3.6 91   11 46.0   0.1 0.8 ENE | 63 2.8   1.5 0.00 0.00 47.2   4.8 50.4   2.8 2.8   1.3
Middletown (Diamond D) 9/1/26 0145 51.4   1.0 91   9 48.8   1.9 1.6 N | 355 4.9   4.9 0.00 0.00 50.0   1.9 51.7   3.2 4.9   2.0
Middletown-West (Domaine Helena) 9/1/26 0145 54.0   3.4 88   4 50.7   4.5 4.4 SSW | 195 8.7   6.9 0.00 0.00 53.2   4.6 54.9   2.1 9.3   6.8
Middletown-South 9/1/26 0145 52.7   0.5 89   10 49.6   2.7 0.5 S | 190 2.8   1.2 0.00 0.00 49.9   3.0 53.2   1.0 5.4   3.2
Jim Davis (Langtry) 9/1/26 0145 54.5   5.4 87   22 50.9   2.7 1.7 NE | 35 2.8   1.3 0.00 0.00 54.5   5.2 55.5   6.9 4.3   2.1
Napa Valley Basin 9/1/26 0145 49.7   1.3 88   6 46.4   0.7 0.7 ENE | 77 3.2   1.5 0.00 0.00 49.4   1.1 51.4   0.9 3.2   1.5
Lower Bohn 9/1/26 0145 46.8   3.2 81   17 41.2   3.1 1.7 WSW | 250 3.5   1.9 0.00 0.00 45.6   3.7 48.8   3.6 3.8   2.2
Upper Bohn-North 9/1/26 0145 52.8   3.5 93   14 51.0   1.0 1.0 SSE | 153 2.4   0.5 0.00 0.00 52.8   3.3 55.2   2.0 3.7   1.1
Snell Peak Blk#9 9/1/26 0145 53.8   7.6 91   28 51.2   2.6 1.4 S | 173 2.9   0.9 0.00 0.00 53.8   5.8 54.9   7.3 4.5   2.5
Coyote Lake West 9/1/26 0145 55.4   0.8 86   10 51.4   4.2 2.5 SSE | 158 4.5   4.5 0.00 0.00 54.5   0.1 55.6   1.2 4.7   4.7
Coyote Lake Northeast 9/1/26 0145 54.2   2.4 88   15 50.9   2.5 - - - - - 54.2   2.4 55.4   4.3 -
Coyote Lake East 9/1/26 0145 50.6   0.8 92   10 48.3   2.4 - - - - - 50.2   1.3 52.4   0.7 -
Morgan Valley 9/1/26 0145 53.4   12.2 85   34 49.0   2.2 7.5 W | 277 15.5   10.1 0.00 0.00 53.2   11.5 54.8   12.5 15.5   7.0
Mine Pit North 9/1/26 0145 52.5   10.0 88   19 48.9   3.0 2.8 SW | 220 7.8   3.0 - - 52.1   9.7 53.8   9.3 7.8   0.7
Mine Pit South 9/1/26 0145 52.1   13.2 90   30 49.2   1.7 5.2 SE | 136 12.3   12.3 0.00 0.00 51.9   13.0 53.2   12.8 12.3   12.3
Cow Mountain 9/1/26 0145 46.9   22.3 - - 13.0 WNW | 292 18.0   12.9 0.01 0.01 46.7   22.3 47.2   22.2 23.2   16.9
Ukiah-SE (Ruddick) 9/1/26 0145 59.3   7.2 75   0 51.5   7.1 3.4 NNW | 330 6.3   5.4 0.00 0.00 59.2   7.8 60.0   6.7 11.7   10.6
Max     59.3 93 51.5 13.0 - 19.8 0.01 0.01 59.2 88.2 23.8
Avg     51.9 86 48.0 3.3 - 7.1 0.00 - - - -
Min     45.2 75 41.2 0.0 - 0.0 0.00 0.00 44.3 47.0 0.0